Madrid, Spain

12:56 AM CET on Februari 25, 2017 (GMT +0100)
Madrid | | Change Station

Elev 1909 ft 40.45 °N, 3.55 °W | Updated 26 minutes ago

Clear
Klart
46 °F
Feels Like 44 °F
N
6
Vind Växlande Vind from N/NO

Idag
High -- | Low -- °F
--% Chance of Precip.
Yesterday
High -- | Low -- °F
Precip. -- tum
Lufttryck 30.09 tum
Sikt -9999.0 miles
Molnigt
Vindavkylning 44 °F
Daggpunkt 30 °F
Luftfuktighet 53%
Rainfall 0.00 tum
Snow Depth Not available.
7:53 AM 7:01 PM
Fjärde kvarteret, 3% visible
METAR LEMD 242330Z 03005KT 350V080 CAVOK 08/M01 Q1019 NOSIG
Lufttryck 30.09 tum
Sikt -9999.0 miles
Molnigt
Vindavkylning 44 °F
Daggpunkt 30 °F
Luftfuktighet 53%
Rainfall 0.00 tum
Snow Depth Not available.
7:53 AM 7:01 PM
Fjärde kvarteret, 3% visible
METAR LEMD 242330Z 03005KT 350V080 CAVOK 08/M01 Q1019 NOSIG

Get Your Daily Forecast Email!

Thanks for signing up!

Be on the lookout for a verification email in your inbox.

You'll start receiving the daily forecast at 8 AM.

×

10-Day Weather Forecast

×

Almanac

Astronomi

Feb. 25, 2017 Rise Set
Actual Time
Civil Twilight
Nautical Twilight
Astronomical Twilight
Månen
Length Of Visible Light
Dagens längd
Tomorrow will be .
, % of the Moon is Illuminated

Today's Extremes

Country Highs Country Lows

Community

WunderPhotos

Upload Photos

1,962,540 photos uploaded!

WunderBlog® & News

Nearby

Air Quality

  Air Quality AQ Index Pollutant
Not available.

Snödjup

Station Depth Elevation

Earthquake Activity

Stad Distance Mag. Time & Date
Minimum magnitude displayed is 2.5.

Coastal Water Temperatures

Plats Temperatur

Stations

Nearby Weather Stations

Station Location Temp Vindavkylning Daggpunkt Luftfuktighet Vind Precip. Elev Uppdaterad Type